Time;durP1;ratioP1;P1;durP2;ratioP2;P2;SDS_P1;SDS_P2;PMS_P1;PMS_P2;Temp;Humidity;BMP_temperature;BMP_pressure;BME280_temperature;BME280_humidity;BME280_pressure;Samples;Min_cycle;Max_cycle;Signal;HPM_P1;HPM_P2
2022/09/24 00:01:37;;;;;;;5.00;2.88;;;;;;;-146.19;100.00;65364.44;10315243;28;20481;-61
2022/09/24 00:06:56;;;;;;;7.72;3.17;;;;;;;-146.19;100.00;65364.44;10299118;28;20081;-61
2022/09/24 00:12:16;;;;;;;5.15;2.83;;;;;;;-146.19;100.00;65364.44;10309180;28;20046;-61
2022/09/24 00:17:35;;;;;;;5.07;2.83;;;;;;;-146.19;100.00;65364.44;10321196;28;20055;-61
2022/09/24 00:22:54;;;;;;;7.00;3.22;;;;;;;-146.19;100.00;65364.44;10294306;28;20058;-61
2022/09/24 00:28:14;;;;;;;4.63;2.33;;;;;;;-146.19;100.00;65364.44;10277697;28;20109;-61
2022/09/24 00:33:34;;;;;;;5.10;2.83;;;;;;;-146.19;100.00;65364.44;10287924;28;20058;-61
2022/09/24 00:38:56;;;;;;;4.65;2.65;;;;;;;-146.19;100.00;65364.44;10307905;28;20050;-61
2022/09/24 00:44:43;;;;;;;5.25;2.92;;;;;;;-146.19;100.00;65364.44;10292870;28;20506;-61
2022/09/24 00:50:14;;;;;;;5.63;2.53;;;;;;;-146.19;100.00;65364.44;10289924;28;20058;-61
2022/09/24 00:55:35;;;;;;;7.70;2.85;;;;;;;-146.19;100.00;65364.44;10322080;28;20062;-61
2022/09/24 01:00:59;;;;;;;4.97;2.60;;;;;;;-146.19;100.00;65364.44;10275917;28;20051;-52
2022/09/24 01:06:18;;;;;;;4.85;2.63;;;;;;;-146.19;100.00;65364.44;10292079;28;20051;-52
2022/09/24 01:11:44;;;;;;;4.85;2.80;;;;;;;-146.19;100.00;65364.44;10292030;28;20047;-51
2022/09/24 01:17:12;;;;;;;5.25;2.90;;;;;;;-146.19;100.00;65364.44;10305339;28;20371;-52
2022/09/24 01:22:48;;;;;;;3.72;2.40;;;;;;;-146.19;100.00;65364.44;10292839;28;20054;-52
2022/09/24 01:28:32;;;;;;;4.25;2.53;;;;;;;-146.19;100.00;65364.44;10287636;28;20523;-51
2022/09/24 01:33:53;;;;;;;3.75;2.47;;;;;;;-146.19;100.00;65364.44;10277808;28;20183;-49
2022/09/24 01:39:13;;;;;;;5.45;2.72;;;;;;;-146.19;100.00;65364.44;10278141;28;20102;-52
2022/09/24 01:44:33;;;;;;;4.50;2.60;;;;;;;-146.19;100.00;65364.44;10294704;28;20062;-51
2022/09/24 01:49:53;;;;;;;4.82;2.40;;;;;;;-146.19;100.00;65364.44;10299684;28;20411;-52
2022/09/24 01:55:15;;;;;;;3.67;2.40;;;;;;;-146.19;100.00;65364.44;10291658;28;20139;-52
2022/09/24 02:00:37;;;;;;;3.53;2.40;;;;;;;-146.19;100.00;65364.44;10284495;28;20054;-52
2022/09/24 02:06:04;;;;;;;3.97;2.45;;;;;;;-146.19;100.00;65364.44;10279647;28;20059;-51
2022/09/24 02:11:23;;;;;;;4.90;2.47;;;;;;;-146.19;100.00;65364.44;10292350;28;20050;-52
2022/09/24 02:16:47;;;;;;;4.07;2.25;;;;;;;-146.19;100.00;65364.44;10287643;28;20054;-51
2022/09/24 02:22:08;;;;;;;3.92;2.30;;;;;;;-146.19;100.00;65364.44;10299862;28;20418;-52
2022/09/24 02:27:28;;;;;;;3.28;2.38;;;;;;;-146.19;100.00;65364.44;10291309;28;20458;-50
2022/09/24 02:32:48;;;;;;;4.00;2.40;;;;;;;-146.19;100.00;65364.44;10299653;28;20061;-52
2022/09/24 02:38:15;;;;;;;3.53;2.15;;;;;;;-146.19;100.00;65364.44;10298388;28;20050;-51
2022/09/24 02:43:35;;;;;;;3.33;2.15;;;;;;;-146.19;100.00;65364.44;10300307;28;20055;-52
2022/09/24 02:48:54;;;;;;;3.25;2.30;;;;;;;-146.19;100.00;65364.44;10297501;28;20058;-51
2022/09/24 02:54:14;;;;;;;3.63;2.28;;;;;;;-146.19;100.00;65364.44;10300341;28;20054;-52
2022/09/24 02:59:34;;;;;;;3.08;2.15;;;;;;;-146.19;100.00;65364.44;10310278;28;20062;-52
2022/09/24 03:04:54;;;;;;;3.67;2.40;;;;;;;-146.19;100.00;65364.44;10321311;28;20074;-51
2022/09/24 03:10:13;;;;;;;3.00;2.10;;;;;;;-146.19;100.00;65364.44;10299782;28;20051;-50
2022/09/24 03:15:32;;;;;;;3.25;2.30;;;;;;;-146.19;100.00;65364.44;10329980;28;20055;-51
2022/09/24 03:21:03;;;;;;;3.10;2.17;;;;;;;-146.19;100.00;65364.44;10296835;28;20113;-52
2022/09/24 03:26:23;;;;;;;2.72;2.13;;;;;;;-146.19;100.00;65364.44;10299671;28;20054;-51
2022/09/24 03:31:43;;;;;;;3.72;2.10;;;;;;;-146.19;100.00;65364.44;10296707;28;20054;-51
2022/09/24 03:37:02;;;;;;;3.60;2.30;;;;;;;-146.19;100.00;65364.44;10306524;28;20049;-51
2022/09/24 03:42:21;;;;;;;3.25;2.17;;;;;;;-146.19;100.00;65364.44;10300378;28;20512;-52
2022/09/24 03:47:41;;;;;;;3.22;2.20;;;;;;;-146.19;100.00;65364.44;10300518;28;20079;-53
2022/09/24 03:53:01;;;;;;;3.30;2.10;;;;;;;-146.19;100.00;65364.44;10297556;28;20043;-51
2022/09/24 03:58:20;;;;;;;3.40;2.35;;;;;;;-146.19;100.00;65364.44;10297993;28;20542;-51
2022/09/24 04:03:40;;;;;;;2.58;1.73;;;;;;;-146.19;100.00;65364.44;10298301;28;20046;-52
2022/09/24 04:08:59;;;;;;;2.35;1.88;;;;;;;-146.19;100.00;65364.44;10294250;28;20051;-52
2022/09/24 04:14:19;;;;;;;3.28;2.20;;;;;;;-146.19;100.00;65364.44;10293986;28;20055;-51
2022/09/24 04:19:38;;;;;;;3.03;2.20;;;;;;;-146.19;100.00;65364.44;10297074;28;20077;-52
2022/09/24 04:24:59;;;;;;;2.67;2.05;;;;;;;-146.19;100.00;65364.44;10304892;28;20113;-52
2022/09/24 04:30:18;;;;;;;2.95;2.00;;;;;;;-146.19;100.00;65364.44;10286832;28;20486;-51
2022/09/24 04:35:37;;;;;;;2.60;2.20;;;;;;;-146.19;100.00;65364.44;10299410;28;20138;-52
2022/09/24 04:41:07;;;;;;;3.08;2.08;;;;;;;-146.19;100.00;65364.44;10292682;28;20058;-52
2022/09/24 04:46:26;;;;;;;3.08;2.03;;;;;;;-146.19;100.00;65364.44;10285587;28;20527;-52
2022/09/24 04:51:45;;;;;;;2.47;1.90;;;;;;;-146.19;100.00;65364.44;10293179;28;20052;-51
2022/09/24 04:57:04;;;;;;;2.28;1.90;;;;;;;-146.19;100.00;65364.44;10301416;28;20054;-52
2022/09/24 05:02:24;;;;;;;2.58;2.08;;;;;;;-146.19;100.00;65364.44;10280761;28;20054;-52
2022/09/24 05:07:43;;;;;;;2.53;1.90;;;;;;;-146.19;100.00;65364.44;10292317;28;20196;-53
2022/09/24 05:13:02;;;;;;;2.42;1.92;;;;;;;-146.19;100.00;65364.44;10305234;28;20043;-51
2022/09/24 05:18:22;;;;;;;2.33;1.90;;;;;;;-146.19;100.00;65364.44;10292477;28;20058;-52
2022/09/24 05:23:41;;;;;;;3.20;2.20;;;;;;;-146.19;100.00;65364.44;10292411;28;20449;-52
2022/09/24 05:29:01;;;;;;;2.47;1.95;;;;;;;-146.19;100.00;65364.44;10288965;28;20062;-53
2022/09/24 05:34:20;;;;;;;2.20;2.00;;;;;;;-146.19;100.00;65364.44;10283608;28;20502;-51
2022/09/24 05:39:39;;;;;;;2.10;1.80;;;;;;;-146.19;100.00;65364.44;10299239;28;20051;-51
2022/09/24 05:44:58;;;;;;;2.55;1.90;;;;;;;-146.19;100.00;65364.44;10295001;28;20057;-53
2022/09/24 05:50:18;;;;;;;3.75;2.25;;;;;;;-146.19;100.00;65364.44;10309226;28;20466;-52
2022/09/24 05:55:37;;;;;;;3.03;2.25;;;;;;;-146.19;100.00;65364.44;10306171;28;20057;-52
2022/09/24 06:01:03;;;;;;;5.90;5.15;;;;;;;-146.19;100.00;65364.44;10320623;28;20051;-52
2022/09/24 06:06:23;;;;;;;3.92;2.88;;;;;;;-146.19;100.00;65364.44;10299754;28;20051;-52
2022/09/24 06:11:43;;;;;;;6.57;3.50;;;;;;;-146.19;100.00;65364.44;10302199;28;20160;-52
2022/09/24 06:17:03;;;;;;;4.47;4.07;;;;;;;-146.19;100.00;65364.44;10299530;28;20058;-52
2022/09/24 06:22:22;;;;;;;6.10;3.72;;;;;;;-146.19;100.00;65364.44;10298121;28;20050;-52
2022/09/24 06:27:42;;;;;;;5.65;3.45;;;;;;;-146.19;100.00;65364.44;10294874;28;20499;-51
2022/09/24 06:33:09;;;;;;;8.27;4.40;;;;;;;-146.19;100.00;65364.44;10301306;28;20065;-51
2022/09/24 06:38:29;;;;;;;14.93;4.65;;;;;;;-146.19;100.00;65364.44;10312365;28;20035;-52
2022/09/24 06:43:48;;;;;;;8.43;4.32;;;;;;;-146.19;100.00;65364.44;10311444;28;20042;-52
2022/09/24 06:49:08;;;;;;;9.13;4.22;;;;;;;-146.19;100.00;65364.44;10297867;28;20054;-51
2022/09/24 06:54:27;;;;;;;7.78;4.47;;;;;;;-146.19;100.00;65364.44;10311395;28;20112;-51
2022/09/24 06:59:47;;;;;;;6.93;4.40;;;;;;;-146.19;100.00;65364.44;10299505;28;20051;-52
2022/09/24 07:05:07;;;;;;;8.07;3.90;;;;;;;-146.19;100.00;65364.44;10304172;28;20126;-52
2022/09/24 07:10:27;;;;;;;6.00;3.78;;;;;;;-146.19;100.00;65364.44;10289757;28;20557;-51
2022/09/24 07:15:48;;;;;;;5.53;3.75;;;;;;;-146.19;100.00;65364.44;10310178;28;20046;-52
2022/09/24 07:21:08;;;;;;;7.45;3.80;;;;;;;-146.19;100.00;65364.44;10299739;28;20062;-52
2022/09/24 07:26:28;;;;;;;5.30;3.80;;;;;;;-146.19;100.00;65364.44;10296995;28;20414;-51
2022/09/24 07:31:48;;;;;;;7.00;3.67;;;;;;;-146.19;100.00;65364.44;10300658;28;20038;-52
2022/09/24 07:37:08;;;;;;;5.57;3.67;;;;;;;-146.19;100.00;65364.44;10310109;28;20077;-52
2022/09/24 07:42:28;;;;;;;5.75;3.70;;;;;;;-146.19;100.00;65364.44;10295821;28;20546;-52
2022/09/24 07:47:59;;;;;;;4.97;3.70;;;;;;;-146.19;100.00;65364.44;10307902;28;20065;-49
2022/09/24 07:53:20;;;;;;;6.85;3.65;;;;;;;-146.19;100.00;65364.44;10308464;28;20062;-52
2022/09/24 07:58:40;;;;;;;7.00;3.42;;;;;;;-146.19;100.00;65364.44;10299617;28;20165;-52
2022/09/24 08:04:00;;;;;;;5.05;3.30;;;;;;;-146.19;100.00;65364.44;10314170;28;20055;-51
2022/09/24 08:09:19;;;;;;;6.18;3.78;;;;;;;-146.19;100.00;65364.44;10297670;28;20050;-51
2022/09/24 08:14:40;;;;;;;5.82;3.67;;;;;;;-146.19;100.00;65364.44;10294798;28;20085;-52
2022/09/24 08:20:00;;;;;;;6.40;3.50;;;;;;;-146.19;100.00;65364.44;10307552;28;20043;-52
2022/09/24 08:25:19;;;;;;;5.25;3.40;;;;;;;-146.19;100.00;65364.44;10313942;28;20084;-54
2022/09/24 08:30:39;;;;;;;4.88;3.17;;;;;;;-146.19;100.00;65364.44;10290022;28;20051;-51
2022/09/24 08:35:59;;;;;;;5.10;3.22;;;;;;;-146.19;100.00;65364.44;10294375;28;20051;-52
2022/09/24 08:41:47;;;;;;;5.03;3.13;;;;;;;-146.19;100.00;65364.44;10303586;28;20061;-53
2022/09/24 08:47:22;;;;;;;4.38;3.40;;;;;;;-146.19;100.00;65364.44;10303134;28;20050;-50
2022/09/24 08:52:41;;;;;;;5.28;3.17;;;;;;;-146.19;100.00;65364.44;10311474;28;20038;-52
2022/09/24 08:58:16;;;;;;;6.80;3.40;;;;;;;-146.19;100.00;65364.44;10293474;28;20054;-52
2022/09/24 09:03:42;;;;;;;4.90;3.00;;;;;;;-146.19;100.00;65364.44;10295925;28;20054;-52
2022/09/24 09:09:02;;;;;;;4.35;3.10;;;;;;;-146.19;100.00;65364.44;10305801;28;20042;-52
2022/09/24 09:14:48;;;;;;;3.30;2.85;;;;;;;-146.19;100.00;65364.44;10314035;28;20054;-52
2022/09/24 09:20:16;;;;;;;5.60;3.15;;;;;;;-146.19;100.00;65364.44;10306808;28;20047;-52
2022/09/24 09:25:36;;;;;;;3.30;2.78;;;;;;;-146.19;100.00;65364.44;10299763;28;20499;-52
2022/09/24 09:30:55;;;;;;;2.90;2.60;;;;;;;-146.19;100.00;65364.44;10293948;28;20506;-52
2022/09/24 09:36:42;;;;;;;4.70;2.70;;;;;;;-146.19;100.00;65364.44;10291944;28;20064;-52
2022/09/24 09:42:24;;;;;;;3.70;2.67;;;;;;;-146.19;100.00;65364.44;10290031;28;20074;-52
2022/09/24 09:48:03;;;;;;;3.83;2.80;;;;;;;-146.19;100.00;65364.44;10277197;28;20057;-52
2022/09/24 09:53:23;;;;;;;3.00;2.67;;;;;;;-146.19;100.00;65364.44;10280302;28;20057;-52
2022/09/24 09:58:46;;;;;;;3.72;2.97;;;;;;;-146.19;100.00;65364.44;10307635;28;20050;-52
2022/09/24 10:04:20;;;;;;;4.68;2.85;;;;;;;-146.19;100.00;65364.44;10306062;28;20069;-52
2022/09/24 10:09:41;;;;;;;4.30;2.65;;;;;;;-146.19;100.00;65364.44;10271973;28;20442;-52
2022/09/24 10:15:15;;;;;;;3.03;2.72;;;;;;;-146.19;100.00;65364.44;10305152;28;20042;-52
2022/09/24 10:20:35;;;;;;;3.58;2.72;;;;;;;-146.19;100.00;65364.44;10282694;28;20427;-51
2022/09/24 10:25:58;;;;;;;2.90;2.60;;;;;;;-146.19;100.00;65364.44;10295624;28;20045;-52
2022/09/24 10:31:21;;;;;;;3.35;2.72;;;;;;;-146.19;100.00;65364.44;10273393;28;20051;-53
2022/09/24 10:36:52;;;;;;;3.08;2.63;;;;;;;-146.19;100.00;65364.44;10279154;28;20559;-52
2022/09/24 10:42:25;;;;;;;3.08;2.50;;;;;;;-146.19;100.00;65364.44;10298695;28;20059;-51
2022/09/24 10:47:52;;;;;;;2.55;2.33;;;;;;;-146.19;100.00;65364.44;10302840;28;20451;-52
2022/09/24 10:53:14;;;;;;;3.40;2.67;;;;;;;-146.19;100.00;65364.44;10296665;28;20047;-52
2022/09/24 10:59:06;;;;;;;3.92;2.60;;;;;;;-146.19;100.00;65364.44;10283331;28;20054;-52
2022/09/24 11:04:49;;;;;;;3.35;2.55;;;;;;;-146.19;100.00;65364.44;10309354;28;20494;-52
2022/09/24 11:10:30;;;;;;;2.95;2.60;;;;;;;-146.19;100.00;65364.44;10322271;28;20043;-52
2022/09/24 11:16:22;;;;;;;2.58;2.35;;;;;;;-146.19;100.00;65364.44;10321090;28;20046;-52
2022/09/24 11:22:00;;;;;;;2.55;2.28;;;;;;;-146.19;100.00;65364.44;10306922;28;20066;-52
2022/09/24 11:27:25;;;;;;;3.17;2.65;;;;;;;-146.19;100.00;65364.44;10293206;28;20097;-53
2022/09/24 11:33:25;;;;;;;3.20;2.35;;;;;;;-146.19;100.00;65364.44;10310404;28;20065;-52
2022/09/24 11:38:50;;;;;;;2.80;2.50;;;;;;;-146.19;100.00;65364.44;10305543;28;20043;-52
2022/09/24 11:44:35;;;;;;;2.20;1.98;;;;;;;-146.19;100.00;65364.44;10313745;28;20415;-54
2022/09/24 11:50:16;;;;;;;3.25;2.50;;;;;;;-146.19;100.00;65364.44;10292360;28;20071;-51
2022/09/24 11:55:55;;;;;;;3.05;2.47;;;;;;;-146.19;100.00;65364.44;10289453;28;20414;-52
2022/09/24 12:01:16;;;;;;;;;;;;;;;-146.19;100.00;65364.44;10297789;28;20530;-52
2022/09/24 12:06:51;;;;;;;2.55;2.30;;;;;;;-146.19;100.00;65364.44;10295609;28;19922;-52
2022/09/24 12:12:15;;;;;;;2.67;2.00;;;;;;;-146.19;100.00;65364.44;10293641;28;20128;-53
2022/09/24 12:17:44;;;;;;;2.50;2.25;;;;;;;-146.19;100.00;65364.44;10300897;28;20050;-53
2022/09/24 12:23:10;;;;;;;2.15;1.95;;;;;;;-146.19;100.00;65364.44;10277897;28;20059;-50
2022/09/24 12:34:28;;;;;;;2.83;2.13;;;;;;;-146.19;100.00;65364.44;10297112;28;20054;-52
2022/09/24 12:40:08;;;;;;;2.13;1.90;;;;;;;-146.19;100.00;65364.44;10303031;28;20050;-51
2022/09/24 12:45:28;;;;;;;2.38;2.10;;;;;;;-146.19;100.00;65364.44;10305935;28;20478;-52
2022/09/24 12:50:55;;;;;;;2.08;1.88;;;;;;;-146.19;100.00;65364.44;10280722;28;20553;-52
2022/09/24 12:56:23;;;;;;;2.50;2.30;;;;;;;-146.19;100.00;65364.44;10281704;28;20066;-52
2022/09/24 13:01:42;;;;;;;2.92;2.03;;;;;;;-146.19;100.00;65364.44;10292644;28;20047;-52
2022/09/24 13:07:02;;;;;;;2.38;1.88;;;;;;;-146.19;100.00;65364.44;10292249;28;20054;-50
2022/09/24 13:12:30;;;;;;;2.83;2.05;;;;;;;-146.19;100.00;65364.44;10311621;28;20383;-52
2022/09/24 13:17:59;;;;;;;2.00;1.80;;;;;;;-146.19;100.00;65364.44;10308539;28;20585;-51
2022/09/24 13:23:23;;;;;;;2.38;1.92;;;;;;;-146.19;100.00;65364.44;10295059;28;20058;-52
2022/09/24 13:28:46;;;;;;;2.00;1.90;;;;;;;-146.19;100.00;65364.44;10281191;28;20102;-51
2022/09/24 13:34:08;;;;;;;2.03;1.80;;;;;;;-146.19;100.00;65364.44;10282822;28;20062;-53
2022/09/24 13:39:45;;;;;;;2.30;2.00;;;;;;;-146.19;100.00;65364.44;10280839;28;20055;-52
2022/09/24 13:45:09;;;;;;;2.10;1.90;;;;;;;-146.19;100.00;65364.44;10292908;28;20472;-53
2022/09/24 13:50:32;;;;;;;2.10;1.90;;;;;;;-146.19;100.00;65364.44;10273126;28;20065;-53
2022/09/24 13:55:54;;;;;;;2.40;2.00;;;;;;;-146.19;100.00;65364.44;10277493;28;20129;-51
2022/09/24 14:01:18;;;;;;;2.28;2.05;;;;;;;-146.19;100.00;65364.44;10291640;28;20051;-52
2022/09/24 14:06:39;;;;;;;2.15;1.95;;;;;;;-146.19;100.00;65364.44;10298302;28;20046;-52
2022/09/24 14:12:02;;;;;;;2.20;2.00;;;;;;;-146.19;100.00;65364.44;10301366;28;20061;-52
2022/09/24 14:17:21;;;;;;;1.92;1.80;;;;;;;-146.19;100.00;65364.44;10296991;28;20499;-51
2022/09/24 14:22:43;;;;;;;2.15;1.90;;;;;;;-146.19;100.00;65364.44;10305343;28;20051;-52
2022/09/24 14:28:03;;;;;;;1.80;1.65;;;;;;;-146.19;100.00;65364.44;10283749;28;20057;-51
2022/09/24 14:33:25;;;;;;;2.08;1.73;;;;;;;-146.19;100.00;65364.44;10295293;28;20059;-52
2022/09/24 14:39:12;;;;;;;2.10;1.90;;;;;;;-146.19;100.00;65364.44;10296650;28;20055;-52
2022/09/24 14:44:31;;;;;;;2.15;1.90;;;;;;;-146.19;100.00;65364.44;10316932;28;20054;-53
2022/09/24 14:49:51;;;;;;;2.13;1.60;;;;;;;-146.19;100.00;65364.44;10293974;28;20054;-51
2022/09/24 14:55:14;;;;;;;2.22;1.90;;;;;;;-146.19;100.00;65364.44;10306993;28;20081;-52
2022/09/24 15:00:47;;;;;;;2.20;2.00;;;;;;;-146.19;100.00;65364.44;10297792;28;20544;-51
2022/09/24 15:06:22;;;;;;;1.88;1.77;;;;;;;-146.19;100.00;65364.44;10283822;28;20105;-52
2022/09/24 15:11:42;;;;;;;2.90;1.77;;;;;;;-146.19;100.00;65364.44;10313222;28;20050;-52
2022/09/24 15:17:09;;;;;;;2.20;2.00;;;;;;;-146.19;100.00;65364.44;10310377;28;20410;-51
2022/09/24 15:22:29;;;;;;;2.03;1.83;;;;;;;-146.19;100.00;65364.44;10317714;28;20038;-52
2022/09/24 15:27:51;;;;;;;2.08;1.88;;;;;;;-146.19;100.00;65364.44;10296183;28;20047;-53
2022/09/24 15:33:14;;;;;;;1.67;1.58;;;;;;;-146.19;100.00;65364.44;10301806;28;20055;-52
2022/09/24 15:38:33;;;;;;;1.70;1.60;;;;;;;-146.19;100.00;65364.44;10290366;28;20057;-52
2022/09/24 15:43:57;;;;;;;1.65;1.55;;;;;;;-146.19;100.00;65364.44;10296072;28;20138;-51
2022/09/24 15:49:21;;;;;;;2.00;1.80;;;;;;;-146.19;100.00;65364.44;10294991;28;20055;-52
2022/09/24 15:54:40;;;;;;;1.55;1.45;;;;;;;-146.19;100.00;65364.44;10295758;28;20054;-51
2022/09/24 16:00:00;;;;;;;2.05;1.60;;;;;;;-146.19;100.00;65364.44;10306751;28;20058;-52
2022/09/24 16:05:20;;;;;;;1.70;1.60;;;;;;;-146.19;100.00;65364.44;10299620;28;20054;-52
2022/09/24 16:10:39;;;;;;;1.73;1.63;;;;;;;-146.19;100.00;65364.44;10295475;28;20050;-52
2022/09/24 16:15:59;;;;;;;1.95;1.80;;;;;;;-146.19;100.00;65364.44;10283012;28;20054;-51
2022/09/24 16:21:19;;;;;;;1.70;1.60;;;;;;;-146.19;100.00;65364.44;10311540;28;20053;-52
2022/09/24 16:26:39;;;;;;;1.80;1.70;;;;;;;-146.19;100.00;65364.44;10319847;28;20460;-52
2022/09/24 16:32:00;;;;;;;2.08;1.42;;;;;;;-146.19;100.00;65364.44;10328230;28;20461;-52
2022/09/24 16:37:20;;;;;;;1.63;1.52;;;;;;;-146.19;100.00;65364.44;10299357;28;20048;-53
2022/09/24 16:42:40;;;;;;;1.70;1.60;;;;;;;-146.19;100.00;65364.44;10323405;28;20042;-52
2022/09/24 16:47:59;;;;;;;2.03;1.80;;;;;;;-146.19;100.00;65364.44;10299870;28;20074;-52
2022/09/24 16:53:19;;;;;;;2.33;1.70;;;;;;;-146.19;100.00;65364.44;10306896;28;20422;-53
2022/09/24 16:58:43;;;;;;;2.03;1.70;;;;;;;-146.19;100.00;65364.44;10293272;28;20047;-51
2022/09/24 17:04:02;;;;;;;1.60;1.50;;;;;;;-146.19;100.00;65364.44;10295790;28;20105;-50
2022/09/24 17:15:00;;;;;;;1.30;1.20;;;;;;;-146.19;100.00;65364.44;10292831;28;20410;-51
2022/09/24 17:20:20;;;;;;;1.50;1.40;;;;;;;-146.19;100.00;65364.44;10297854;28;20046;-52
2022/09/24 17:25:39;;;;;;;1.70;1.60;;;;;;;-146.19;100.00;65364.44;10292727;28;20551;-51
2022/09/24 17:30:58;;;;;;;1.30;1.20;;;;;;;-146.19;100.00;65364.44;10291480;28;20043;-51
2022/09/24 17:36:18;;;;;;;1.58;1.48;;;;;;;-146.19;100.00;65364.44;10290051;28;20065;-51
2022/09/24 17:41:38;;;;;;;1.60;1.50;;;;;;;-146.19;100.00;65364.44;10307921;28;20086;-53
2022/09/24 17:46:57;;;;;;;1.50;1.40;;;;;;;-146.19;100.00;65364.44;10306455;28;20051;-51
2022/09/24 17:52:19;;;;;;;1.40;1.30;;;;;;;-146.19;100.00;65364.44;10297166;28;20498;-51
2022/09/24 17:57:39;;;;;;;1.55;1.40;;;;;;;-146.19;100.00;65364.44;10297866;28;20059;-52
2022/09/24 18:02:58;;;;;;;1.40;1.30;;;;;;;-146.19;100.00;65364.44;10291761;28;20465;-52
2022/09/24 18:08:18;;;;;;;1.80;1.42;;;;;;;-146.19;100.00;65364.44;10312220;28;20122;-52
2022/09/24 18:13:39;;;;;;;1.60;1.50;;;;;;;-146.19;100.00;65364.44;10291825;28;20043;-52
2022/09/24 18:18:59;;;;;;;1.80;1.70;;;;;;;-146.19;100.00;65364.44;10293544;28;20494;-51
2022/09/24 18:24:19;;;;;;;1.83;1.60;;;;;;;-146.19;100.00;65364.44;10291067;28;20059;-52
2022/09/24 18:29:39;;;;;;;1.58;1.45;;;;;;;-146.19;100.00;65364.44;10300262;28;20044;-51
2022/09/24 18:34:58;;;;;;;1.55;1.45;;;;;;;-146.19;100.00;65364.44;10293469;28;20061;-53
2022/09/24 18:40:18;;;;;;;1.50;1.40;;;;;;;-146.19;100.00;65364.44;10290925;28;20054;-51
2022/09/24 18:45:38;;;;;;;1.50;1.40;;;;;;;-146.19;100.00;65364.44;10315022;28;20053;-52
2022/09/24 18:50:58;;;;;;;1.45;1.35;;;;;;;-146.19;100.00;65364.44;10289997;28;20051;-52
2022/09/24 18:56:17;;;;;;;1.70;1.60;;;;;;;-146.19;100.00;65364.44;10293969;28;20146;-51
2022/09/24 19:01:38;;;;;;;1.70;1.60;;;;;;;-146.19;100.00;65364.44;10297824;28;20475;-53
2022/09/24 19:06:57;;;;;;;1.63;1.52;;;;;;;-146.19;100.00;65364.44;10294811;28;20050;-52
2022/09/24 19:12:18;;;;;;;1.58;1.48;;;;;;;-146.19;100.00;65364.44;10315544;28;20054;-51
2022/09/24 19:17:37;;;;;;;1.55;1.45;;;;;;;-146.19;100.00;65364.44;10317980;28;20085;-52
2022/09/24 19:22:59;;;;;;;1.75;1.65;;;;;;;-146.19;100.00;65364.44;10296640;28;20405;-53
2022/09/24 19:28:19;;;;;;;1.60;1.50;;;;;;;-146.19;100.00;65364.44;10299196;28;20058;-51
2022/09/24 19:33:39;;;;;;;1.63;1.52;;;;;;;-146.19;100.00;65364.44;10321955;28;20063;-52
2022/09/24 19:39:00;;;;;;;1.85;1.40;;;;;;;-146.19;100.00;65364.44;10295817;28;20113;-52
2022/09/24 19:44:20;;;;;;;1.73;1.63;;;;;;;-146.19;100.00;65364.44;10295755;28;20062;-54
2022/09/24 19:49:39;;;;;;;1.80;1.60;;;;;;;-146.19;100.00;65364.44;10295127;28;20178;-52
2022/09/24 19:54:58;;;;;;;1.80;1.70;;;;;;;-146.19;100.00;65364.44;10296410;28;20388;-51
2022/09/24 20:00:22;;;;;;;1.60;1.45;;;;;;;-146.19;100.00;65364.44;10309493;28;20379;-54
2022/09/24 20:05:44;;;;;;;2.08;1.88;;;;;;;-146.19;100.00;65364.44;10294945;28;20491;-52
2022/09/24 20:11:07;;;;;;;1.65;1.55;;;;;;;-146.19;100.00;65364.44;10294459;28;20438;-52
2022/09/24 20:16:29;;;;;;;1.77;1.60;;;;;;;-146.19;100.00;65364.44;10294759;28;20086;-53
2022/09/24 20:21:51;;;;;;;1.50;1.40;;;;;;;-146.19;100.00;65364.44;10338220;28;20041;-51
2022/09/24 20:32:49;;;;;;;1.70;1.58;;;;;;;-146.19;100.00;65364.44;10305248;28;20047;-51
2022/09/24 20:38:09;;;;;;;1.75;1.65;;;;;;;-146.19;100.00;65364.44;10294826;28;20058;-52
2022/09/24 20:43:31;;;;;;;1.80;1.70;;;;;;;-146.19;100.00;65364.44;10309988;28;20046;-51
2022/09/24 20:48:51;;;;;;;1.70;1.60;;;;;;;-146.19;100.00;65364.44;10299885;28;20414;-52
2022/09/24 20:54:11;;;;;;;2.08;1.88;;;;;;;-146.19;100.00;65364.44;10304389;28;20113;-51
2022/09/24 20:59:30;;;;;;;1.90;1.52;;;;;;;-146.19;100.00;65364.44;10293418;28;20070;-52
2022/09/24 21:04:51;;;;;;;1.95;1.80;;;;;;;-146.19;100.00;65364.44;10293032;28;20561;-52
2022/09/24 21:10:11;;;;;;;1.90;1.73;;;;;;;-146.19;100.00;65364.44;10306017;28;20042;-53
2022/09/24 21:15:30;;;;;;;1.90;1.80;;;;;;;-146.19;100.00;65364.44;10305248;28;20038;-52
2022/09/24 21:20:50;;;;;;;1.70;1.60;;;;;;;-146.19;100.00;65364.44;10291858;28;20054;-52
2022/09/24 21:26:11;;;;;;;1.83;1.73;;;;;;;-146.19;100.00;65364.44;10292665;28;20055;-52
2022/09/24 21:31:32;;;;;;;1.80;1.70;;;;;;;-146.19;100.00;65364.44;10291752;28;20062;-52
2022/09/24 21:36:52;;;;;;;1.58;1.48;;;;;;;-146.19;100.00;65364.44;10292202;28;20054;-51
2022/09/24 21:42:13;;;;;;;2.20;2.00;;;;;;;-146.19;100.00;65364.44;10296792;28;20042;-52
2022/09/24 21:47:32;;;;;;;1.50;1.40;;;;;;;-146.19;100.00;65364.44;10296410;28;20086;-51
2022/09/24 21:52:52;;;;;;;1.88;1.70;;;;;;;-146.19;100.00;65364.44;10310593;28;20051;-52
2022/09/24 21:58:11;;;;;;;1.80;1.70;;;;;;;-146.19;100.00;65364.44;10304477;28;20406;-52
2022/09/24 22:03:30;;;;;;;1.77;1.60;;;;;;;-146.19;100.00;65364.44;10285569;28;20054;-51
2022/09/24 22:08:50;;;;;;;2.10;1.90;;;;;;;-146.19;100.00;65364.44;10303684;28;20523;-51
2022/09/24 22:14:10;;;;;;;1.77;1.67;;;;;;;-146.19;100.00;65364.44;10294191;28;20061;-52
2022/09/24 22:19:30;;;;;;;1.73;1.63;;;;;;;-146.19;100.00;65364.44;10291182;28;20059;-50
2022/09/24 22:24:49;;;;;;;1.70;1.60;;;;;;;-146.19;100.00;65364.44;10293881;28;20050;-52
2022/09/24 22:30:10;;;;;;;1.70;1.60;;;;;;;-146.19;100.00;65364.44;10280022;28;20046;-51
2022/09/24 22:35:49;;;;;;;2.53;1.92;;;;;;;-146.19;100.00;65364.44;10301023;28;20493;-52
2022/09/24 22:41:10;;;;;;;1.77;1.67;;;;;;;-146.19;100.00;65364.44;10309340;28;20105;-52
2022/09/24 22:46:30;;;;;;;1.88;1.77;;;;;;;-146.19;100.00;65364.44;10300826;28;20054;-53
2022/09/24 22:51:50;;;;;;;2.25;1.83;;;;;;;-146.19;100.00;65364.44;10308067;28;20066;-52
2022/09/24 22:57:10;;;;;;;1.85;1.75;;;;;;;-146.19;100.00;65364.44;10306837;28;20134;-51
2022/09/24 23:02:30;;;;;;;2.55;2.00;;;;;;;-146.19;100.00;65364.44;10303593;28;20069;-50
2022/09/24 23:07:49;;;;;;;2.00;1.80;;;;;;;-146.19;100.00;65364.44;10316089;28;20062;-52
2022/09/24 23:13:08;;;;;;;2.05;1.83;;;;;;;-146.19;100.00;65364.44;10320994;28;20050;-51
2022/09/24 23:18:28;;;;;;;1.70;1.60;;;;;;;-146.19;100.00;65364.44;10300801;28;20061;-52
2022/09/24 23:23:51;;;;;;;1.75;1.65;;;;;;;-146.19;100.00;65364.44;10311903;28;20059;-51
2022/09/24 23:29:12;;;;;;;2.08;1.88;;;;;;;-146.19;100.00;65364.44;10290807;28;20129;-53
2022/09/24 23:34:32;;;;;;;1.80;1.70;;;;;;;-146.19;100.00;65364.44;10300447;28;20463;-52
2022/09/24 23:39:51;;;;;;;2.67;1.90;;;;;;;-146.19;100.00;65364.44;10320216;28;20043;-51
2022/09/24 23:45:10;;;;;;;2.00;1.80;;;;;;;-146.19;100.00;65364.44;10319517;28;20426;-52
2022/09/24 23:50:29;;;;;;;2.80;1.70;;;;;;;-146.19;100.00;65364.44;10295478;28;20422;-52
2022/09/24 23:55:49;;;;;;;2.00;1.90;;;;;;;-146.19;100.00;65364.44;10298588;28;20055;-52
